createdAt,value
2023-08-12T00:04:40.441Z,96928.91
2023-08-12T00:09:44.020Z,96925.16
2023-08-12T00:14:48.663Z,96924.28
2023-08-12T00:19:52.012Z,96924.34
2023-08-12T00:24:55.865Z,96920.13
2023-08-12T00:30:00.390Z,96907.53
2023-08-12T00:35:04.179Z,96914.50
2023-08-12T00:40:08.642Z,96920.13
2023-08-12T00:45:14.480Z,96917.44
2023-08-12T00:50:17.928Z,96929.69
2023-08-12T00:55:21.433Z,96934.97
2023-08-12T01:00:26.088Z,96932.09
2023-08-12T01:05:29.373Z,96928.00
2023-08-12T01:10:35.927Z,96931.34
2023-08-12T01:15:40.576Z,96925.72
2023-08-12T01:20:44.270Z,96924.09
2023-08-12T01:25:48.886Z,96915.31
2023-08-12T01:30:59.259Z,96913.91
2023-08-12T01:36:09.638Z,96913.69
2023-08-12T01:41:15.282Z,96915.31
2023-08-12T01:46:18.675Z,96903.81
2023-08-12T01:51:21.948Z,96905.69
2023-08-12T01:56:26.509Z,96913.44
2023-08-12T02:01:29.742Z,96895.25
2023-08-12T02:06:32.954Z,96900.59
2023-08-12T02:11:37.559Z,96903.78
2023-08-12T02:16:40.786Z,96903.78
2023-08-12T02:21:44.037Z,96903.56
2023-08-12T02:26:48.650Z,96905.41
2023-08-12T02:31:54.144Z,96912.66
2023-08-12T02:36:57.501Z,96905.88
2023-08-12T02:42:02.255Z,96898.63
2023-08-12T02:47:05.789Z,96898.47
2023-08-12T02:52:09.621Z,96889.41
2023-08-12T02:57:14.538Z,96900.88
2023-08-12T03:02:18.112Z,96897.31
2023-08-12T03:07:21.356Z,96894.72
2023-08-12T03:12:25.960Z,96879.78
2023-08-12T03:17:29.365Z,96882.38
2023-08-12T03:22:32.606Z,96883.50
2023-08-12T03:27:37.246Z,96884.53
2023-08-12T03:32:40.975Z,96885.09
2023-08-12T03:37:44.238Z,96887.78
2023-08-12T03:42:48.883Z,96888.59
2023-08-12T03:47:52.140Z,96890.72
2023-08-12T03:52:55.390Z,96888.34
2023-08-12T03:57:59.984Z,96892.34
2023-08-12T04:03:03.452Z,96884.84
2023-08-12T04:08:06.855Z,96881.91
2023-08-12T04:13:11.419Z,96884.47
2023-08-12T04:18:14.611Z,96897.91
2023-08-12T04:23:18.181Z,96886.19
2023-08-12T04:28:22.838Z,96885.22
2023-08-12T04:33:26.180Z,96889.06
2023-08-12T04:38:29.424Z,96895.47
2023-08-12T04:43:34.076Z,96891.28
2023-08-12T04:48:37.329Z,96892.06
2023-08-12T04:53:40.543Z,96887.78
2023-08-12T04:58:45.166Z,96868.28
2023-08-12T05:03:48.334Z,96872.59
2023-08-12T05:08:51.556Z,96880.84
2023-08-12T05:13:56.182Z,96876.59
2023-08-12T05:18:59.370Z,96875.50
2023-08-12T05:24:02.587Z,96866.88
2023-08-12T05:29:07.344Z,96874.97
2023-08-12T05:34:10.632Z,96858.16
2023-08-12T05:39:13.892Z,96865.53
2023-08-12T05:44:18.668Z,96869.56
2023-08-12T05:49:21.894Z,96878.09
2023-08-12T05:54:25.152Z,96875.41
2023-08-12T05:59:30.002Z,96879.19
2023-08-12T06:04:33.280Z,96873.50
2023-08-12T06:09:36.527Z,96885.31
2023-08-12T06:14:41.172Z,96877.97
2023-08-12T06:19:44.458Z,96879.84
2023-08-12T06:24:47.858Z,96887.53
2023-08-12T06:29:52.632Z,96898.53
2023-08-12T06:34:56.267Z,96896.13
2023-08-12T06:39:59.541Z,96889.56
2023-08-12T06:45:05.265Z,96901.00
2023-08-12T06:50:09.122Z,96897.78
2023-08-12T06:55:12.440Z,96891.75
2023-08-12T07:00:17.478Z,96903.06
2023-08-12T07:05:20.698Z,96903.72
2023-08-12T07:10:24.234Z,96893.56
2023-08-12T07:15:28.980Z,96900.34
2023-08-12T07:20:32.292Z,96895.34
2023-08-12T07:25:35.625Z,96904.88
2023-08-12T07:30:40.288Z,96905.25
2023-08-12T07:35:43.498Z,96904.22
2023-08-12T07:40:46.682Z,96906.09
2023-08-12T07:46:07.643Z,96901.81
2023-08-12T07:51:12.429Z,96903.75
2023-08-12T07:56:17.049Z,96903.69
2023-08-12T08:01:21.650Z,96893.81
2023-08-12T08:06:25.448Z,96895.81
2023-08-12T08:11:28.740Z,96908.94
2023-08-12T08:16:34.088Z,96906.94
2023-08-12T08:21:38.289Z,96908.03
2023-08-12T08:26:41.902Z,96912.75
2023-08-12T08:31:46.529Z,96911.72
2023-08-12T08:36:50.382Z,96916.19
2023-08-12T08:41:55.231Z,96917.09
2023-08-12T08:47:01.212Z,96902.88
2023-08-12T08:52:04.710Z,96908.00
2023-08-12T08:57:10.958Z,96902.44
2023-08-12T09:02:22.898Z,96902.78
2023-08-12T09:07:26.167Z,96911.56
2023-08-12T09:12:29.823Z,96912.75
2023-08-12T09:17:35.457Z,96909.72
2023-08-12T09:22:38.923Z,96913.53
2023-08-12T09:27:42.268Z,96914.81
2023-08-12T09:33:00.985Z,96916.69
2023-08-12T09:38:06.342Z,96918.59
2023-08-12T09:43:09.556Z,96916.47
2023-08-12T09:48:16.610Z,96914.25
2023-08-12T09:53:21.105Z,96914.13
2023-08-12T09:58:26.585Z,96910.22
2023-08-12T10:03:31.721Z,96912.28
2023-08-12T10:08:35.044Z,96916.03
2023-08-12T10:13:38.812Z,96915.19
2023-08-12T10:18:43.765Z,96915.44
2023-08-12T10:23:48.289Z,96906.34
2023-08-12T10:28:53.034Z,96904.47
2023-08-12T10:33:59.667Z,96891.91
2023-08-12T10:39:03.154Z,96883.72
2023-08-12T10:44:08.799Z,96869.53
2023-08-12T10:49:13.646Z,96862.97
2023-08-12T10:54:23.000Z,96859.31
2023-08-12T10:59:50.877Z,96865.69
2023-08-12T11:05:00.059Z,96868.34
2023-08-12T11:10:07.281Z,96872.66
2023-08-12T11:15:12.578Z,96871.72
2023-08-12T11:20:17.262Z,96868.34
2023-08-12T11:25:21.043Z,96863.13
2023-08-12T11:30:25.082Z,96873.78
2023-08-12T11:35:30.737Z,96867.38
2023-08-12T11:40:34.412Z,96875.44
2023-08-12T11:45:39.704Z,96861.66
2023-08-12T11:50:44.438Z,96859.88
2023-08-12T11:55:48.622Z,96873.09
2023-08-12T12:00:52.131Z,96866.84
2023-08-12T12:05:58.018Z,96865.56
2023-08-12T12:11:06.242Z,96859.84
2023-08-12T12:16:12.672Z,96861.41
2023-08-12T12:21:22.658Z,96863.34
2023-08-12T12:26:26.263Z,96862.56
2023-08-12T12:31:29.503Z,96866.59
2023-08-12T12:36:34.347Z,96868.94
2023-08-12T12:41:37.576Z,96871.03
2023-08-12T12:46:40.773Z,96877.28
2023-08-12T12:51:46.200Z,96873.66
2023-08-12T12:56:49.557Z,96883.72
2023-08-12T13:01:52.970Z,96877.88
2023-08-12T13:06:57.611Z,96876.91
2023-08-12T13:12:01.140Z,96869.88
2023-08-12T13:17:04.551Z,96860.25
2023-08-12T13:22:09.283Z,96857.56
2023-08-12T13:27:14.298Z,96842.94
2023-08-12T13:32:17.659Z,96846.00
2023-08-12T13:37:22.239Z,96857.66
2023-08-12T13:42:25.960Z,96853.34
2023-08-12T13:47:29.313Z,96854.94
2023-08-12T13:52:34.091Z,96856.06
2023-08-12T13:57:37.498Z,96853.81
2023-08-12T14:02:41.110Z,96844.63
2023-08-12T14:07:45.755Z,96842.69
2023-08-12T14:12:51.972Z,96838.09
2023-08-12T14:17:56.193Z,96842.84
2023-08-12T14:23:01.597Z,96842.69
2023-08-12T14:28:05.262Z,96839.66
2023-08-12T14:33:08.907Z,96835.63
2023-08-12T14:38:13.938Z,96834.16
2023-08-12T14:43:18.140Z,96826.28
2023-08-12T14:48:21.412Z,96828.06
2023-08-12T14:53:27.172Z,96821.91
2023-08-12T14:58:30.431Z,96825.94
2023-08-12T15:03:33.782Z,96823.25
2023-08-12T15:08:38.456Z,96811.50
2023-08-12T15:13:41.620Z,96811.63
2023-08-12T15:18:44.805Z,96807.22
2023-08-12T15:23:49.475Z,96802.09
2023-08-12T15:28:53.029Z,96803.00
2023-08-12T15:33:56.364Z,96793.28
2023-08-12T15:39:00.948Z,96792.50
2023-08-12T15:44:04.500Z,96779.28
2023-08-12T15:49:11.479Z,96777.22
2023-08-12T15:54:16.176Z,96775.84
2023-08-12T15:59:20.827Z,96780.63
2023-08-12T16:04:25.682Z,96771.78
2023-08-12T16:09:31.436Z,96762.91
2023-08-12T16:14:34.708Z,96756.69
2023-08-12T16:19:38.197Z,96756.63
2023-08-12T16:24:43.120Z,96756.94
2023-08-12T16:29:46.960Z,96757.28
2023-08-12T16:34:50.245Z,96752.75
2023-08-12T16:39:54.951Z,96742.81
2023-08-12T16:44:58.497Z,96733.84
2023-08-12T16:50:01.768Z,96722.31
2023-08-12T16:55:07.767Z,96716.06
2023-08-12T17:00:12.020Z,96710.72
2023-08-12T17:05:15.320Z,96711.88
2023-08-12T17:10:20.401Z,96712.38
2023-08-12T17:15:24.182Z,96709.56
2023-08-12T17:20:27.594Z,96718.09
2023-08-12T17:25:32.231Z,96712.75
2023-08-12T17:30:37.247Z,96709.78
2023-08-12T17:35:41.216Z,96708.44
2023-08-12T17:40:45.919Z,96704.59
2023-08-12T17:45:49.186Z,96701.47
2023-08-12T17:50:52.404Z,96703.63
2023-08-12T17:55:56.993Z,96705.56
2023-08-12T18:01:00.336Z,96711.09
2023-08-12T18:06:05.541Z,96710.63
2023-08-12T18:11:10.231Z,96704.81
2023-08-12T18:16:13.759Z,96710.00
2023-08-12T18:21:17.117Z,96710.41
2023-08-12T18:26:21.742Z,96721.94
2023-08-12T18:31:25.046Z,96723.41
2023-08-12T18:36:28.272Z,96729.44
2023-08-12T18:41:33.207Z,96733.72
2023-08-12T18:46:36.710Z,96741.03
2023-08-12T18:51:40.111Z,96749.00
2023-08-12T18:56:44.795Z,96753.31
2023-08-12T19:01:48.108Z,96766.41
2023-08-12T19:06:51.502Z,96772.84
2023-08-12T19:11:56.157Z,96782.97
2023-08-12T19:16:59.342Z,96796.25
2023-08-12T19:22:02.618Z,96792.72
2023-08-12T19:27:07.625Z,96800.16
2023-08-12T19:32:10.923Z,96802.69
2023-08-12T19:37:14.195Z,96806.84
2023-08-12T19:42:18.855Z,96806.75
2023-08-12T19:47:22.069Z,96794.28
2023-08-12T19:52:25.422Z,96800.56
2023-08-12T19:57:30.304Z,96797.28
2023-08-12T20:02:39.264Z,96790.88
2023-08-12T20:07:43.547Z,96796.59
2023-08-12T20:12:48.382Z,96793.63
2023-08-12T20:17:51.723Z,96800.03
2023-08-12T20:23:05.630Z,96805.03
2023-08-12T20:28:11.357Z,96809.59
2023-08-12T20:33:14.698Z,96814.59
2023-08-12T20:38:19.484Z,96803.75
2023-08-12T20:43:25.419Z,96797.38
2023-08-12T20:48:28.726Z,96795.22
2023-08-12T20:53:32.495Z,96803.66
2023-08-12T20:58:37.115Z,96799.56
2023-08-12T21:03:40.740Z,96805.50
2023-08-12T21:08:44.091Z,96800.91
2023-08-12T21:13:48.783Z,96793.47
2023-08-12T21:18:53.175Z,96806.38
2023-08-12T21:23:56.357Z,96813.56
2023-08-12T21:29:00.904Z,96811.25
2023-08-12T21:34:04.159Z,96814.06
2023-08-12T21:39:07.514Z,96821.91
2023-08-12T21:44:12.282Z,96826.50
2023-08-12T21:49:16.304Z,96827.41
2023-08-12T21:54:19.570Z,96824.00
2023-08-12T21:59:24.958Z,96825.34
2023-08-12T22:04:28.363Z,96826.28
2023-08-12T22:09:34.767Z,96828.56
2023-08-12T22:14:40.266Z,96820.94
2023-08-12T22:19:43.573Z,96817.78
2023-08-12T22:24:47.336Z,96808.47
2023-08-12T22:29:52.031Z,96811.88
2023-08-12T22:34:55.310Z,96804.84
2023-08-12T22:39:58.639Z,96808.38
2023-08-12T22:45:03.508Z,96810.31
2023-08-12T22:50:08.479Z,96812.53
2023-08-12T22:55:12.328Z,96804.50
2023-08-12T23:00:17.213Z,96812.28
2023-08-12T23:05:20.567Z,96804.41
2023-08-12T23:10:24.013Z,96814.81
2023-08-12T23:15:29.179Z,96808.75
2023-08-12T23:20:32.680Z,96807.16
2023-08-12T23:25:35.981Z,96816.00
2023-08-12T23:30:41.417Z,96822.25
2023-08-12T23:35:44.753Z,96817.66
2023-08-12T23:40:48.044Z,96819.03
2023-08-12T23:45:52.623Z,96818.44
2023-08-12T23:50:55.885Z,96823.59
2023-08-12T23:55:59.118Z,96828.44
